sensor_id;sensor_type;location;lat;lon;timestamp;P1;durP1;ratioP1;P2;durP2;ratioP2
65189;SDS011;51777;53.570;9.984;2024-01-11T00:00:36;30.45;;;16.40;;
65189;SDS011;51777;53.570;9.984;2024-01-11T00:03:02;33.08;;;16.92;;
65189;SDS011;51777;53.570;9.984;2024-01-11T00:05:28;29.25;;;15.60;;
65189;SDS011;51777;53.570;9.984;2024-01-11T00:07:53;29.52;;;15.45;;
65189;SDS011;51777;53.570;9.984;2024-01-11T00:10:19;30.35;;;15.43;;
65189;SDS011;51777;53.570;9.984;2024-01-11T00:12:45;32.35;;;15.93;;
65189;SDS011;51777;53.570;9.984;2024-01-11T00:15:11;31.73;;;15.35;;
65189;SDS011;51777;53.570;9.984;2024-01-11T00:17:36;21.95;;;11.15;;
65189;SDS011;51777;53.570;9.984;2024-01-11T00:20:02;29.90;;;14.77;;
65189;SDS011;51777;53.570;9.984;2024-01-11T00:22:28;28.50;;;15.70;;
65189;SDS011;51777;53.570;9.984;2024-01-11T00:24:53;32.03;;;14.68;;
65189;SDS011;51777;53.570;9.984;2024-01-11T00:27:19;32.85;;;15.38;;
65189;SDS011;51777;53.570;9.984;2024-01-11T00:29:44;31.10;;;15.43;;
65189;SDS011;51777;53.570;9.984;2024-01-11T00:32:10;33.22;;;15.32;;
65189;SDS011;51777;53.570;9.984;2024-01-11T00:34:35;26.27;;;14.38;;
65189;SDS011;51777;53.570;9.984;2024-01-11T00:37:01;27.00;;;13.50;;
65189;SDS011;51777;53.570;9.984;2024-01-11T00:39:27;31.83;;;14.45;;
65189;SDS011;51777;53.570;9.984;2024-01-11T00:41:52;34.70;;;15.23;;
65189;SDS011;51777;53.570;9.984;2024-01-11T00:44:17;32.92;;;15.73;;
65189;SDS011;51777;53.570;9.984;2024-01-11T00:46:43;30.20;;;15.98;;
65189;SDS011;51777;53.570;9.984;2024-01-11T00:49:08;31.75;;;16.70;;
65189;SDS011;51777;53.570;9.984;2024-01-11T00:51:34;30.27;;;16.23;;
65189;SDS011;51777;53.570;9.984;2024-01-11T00:53:59;30.45;;;15.13;;
65189;SDS011;51777;53.570;9.984;2024-01-11T00:56:24;34.15;;;16.58;;
65189;SDS011;51777;53.570;9.984;2024-01-11T00:58:50;31.58;;;16.05;;
65189;SDS011;51777;53.570;9.984;2024-01-11T01:01:15;31.20;;;15.30;;
65189;SDS011;51777;53.570;9.984;2024-01-11T01:03:41;11.98;;;6.25;;
65189;SDS011;51777;53.570;9.984;2024-01-11T01:06:06;26.83;;;13.85;;
65189;SDS011;51777;53.570;9.984;2024-01-11T01:08:31;28.17;;;15.35;;
65189;SDS011;51777;53.570;9.984;2024-01-11T01:10:57;18.58;;;9.65;;
65189;SDS011;51777;53.570;9.984;2024-01-11T01:13:22;30.17;;;14.05;;
65189;SDS011;51777;53.570;9.984;2024-01-11T01:15:48;23.77;;;10.77;;
65189;SDS011;51777;53.570;9.984;2024-01-11T01:18:14;19.42;;;9.70;;
65189;SDS011;51777;53.570;9.984;2024-01-11T01:20:39;26.58;;;13.13;;
65189;SDS011;51777;53.570;9.984;2024-01-11T01:23:05;24.40;;;13.93;;
65189;SDS011;51777;53.570;9.984;2024-01-11T01:25:30;25.48;;;13.82;;
65189;SDS011;51777;53.570;9.984;2024-01-11T01:27:57;14.02;;;8.13;;
65189;SDS011;51777;53.570;9.984;2024-01-11T01:30:24;26.25;;;13.50;;
65189;SDS011;51777;53.570;9.984;2024-01-11T01:32:49;26.17;;;13.43;;
65189;SDS011;51777;53.570;9.984;2024-01-11T01:35:15;21.45;;;11.20;;
65189;SDS011;51777;53.570;9.984;2024-01-11T01:37:41;21.35;;;12.32;;
65189;SDS011;51777;53.570;9.984;2024-01-11T01:40:06;25.48;;;13.45;;
65189;SDS011;51777;53.570;9.984;2024-01-11T01:42:33;28.80;;;13.82;;
65189;SDS011;51777;53.570;9.984;2024-01-11T01:44:58;11.38;;;6.72;;
65189;SDS011;51777;53.570;9.984;2024-01-11T01:47:24;18.98;;;9.30;;
65189;SDS011;51777;53.570;9.984;2024-01-11T01:49:50;21.73;;;10.40;;
65189;SDS011;51777;53.570;9.984;2024-01-11T01:52:15;26.52;;;12.90;;
65189;SDS011;51777;53.570;9.984;2024-01-11T01:54:42;25.77;;;13.00;;
65189;SDS011;51777;53.570;9.984;2024-01-11T01:57:08;27.63;;;8.68;;
65189;SDS011;51777;53.570;9.984;2024-01-11T01:59:36;28.52;;;13.40;;
65189;SDS011;51777;53.570;9.984;2024-01-11T02:02:03;25.45;;;13.93;;
65189;SDS011;51777;53.570;9.984;2024-01-11T02:04:29;25.58;;;12.70;;
65189;SDS011;51777;53.570;9.984;2024-01-11T02:06:55;28.60;;;12.98;;
65189;SDS011;51777;53.570;9.984;2024-01-11T02:09:23;25.35;;;13.30;;
65189;SDS011;51777;53.570;9.984;2024-01-11T02:11:49;28.83;;;13.80;;
65189;SDS011;51777;53.570;9.984;2024-01-11T02:14:17;24.85;;;11.68;;
65189;SDS011;51777;53.570;9.984;2024-01-11T02:16:42;30.30;;;14.30;;
65189;SDS011;51777;53.570;9.984;2024-01-11T02:19:08;31.58;;;15.25;;
65189;SDS011;51777;53.570;9.984;2024-01-11T02:21:42;31.13;;;14.98;;
65189;SDS011;51777;53.570;9.984;2024-01-11T02:24:09;29.30;;;15.10;;
65189;SDS011;51777;53.570;9.984;2024-01-11T02:26:35;30.13;;;14.93;;
65189;SDS011;51777;53.570;9.984;2024-01-11T02:29:00;30.65;;;14.85;;
65189;SDS011;51777;53.570;9.984;2024-01-11T02:31:26;32.20;;;15.85;;
65189;SDS011;51777;53.570;9.984;2024-01-11T02:33:52;31.50;;;15.25;;
65189;SDS011;51777;53.570;9.984;2024-01-11T02:36:19;36.75;;;16.77;;
65189;SDS011;51777;53.570;9.984;2024-01-11T02:38:45;30.73;;;15.45;;
65189;SDS011;51777;53.570;9.984;2024-01-11T02:41:11;31.70;;;15.88;;
65189;SDS011;51777;53.570;9.984;2024-01-11T02:43:36;34.35;;;17.08;;
65189;SDS011;51777;53.570;9.984;2024-01-11T02:46:02;36.45;;;17.35;;
65189;SDS011;51777;53.570;9.984;2024-01-11T02:48:28;32.42;;;17.00;;
65189;SDS011;51777;53.570;9.984;2024-01-11T02:50:55;34.30;;;16.58;;
65189;SDS011;51777;53.570;9.984;2024-01-11T02:53:23;38.28;;;18.15;;
65189;SDS011;51777;53.570;9.984;2024-01-11T02:55:52;36.17;;;17.60;;
65189;SDS011;51777;53.570;9.984;2024-01-11T02:58:17;36.05;;;17.52;;
65189;SDS011;51777;53.570;9.984;2024-01-11T03:00:43;38.33;;;18.05;;
65189;SDS011;51777;53.570;9.984;2024-01-11T03:03:08;41.17;;;17.38;;
65189;SDS011;51777;53.570;9.984;2024-01-11T03:05:33;33.97;;;16.73;;
65189;SDS011;51777;53.570;9.984;2024-01-11T03:07:59;39.30;;;18.63;;
65189;SDS011;51777;53.570;9.984;2024-01-11T03:10:24;43.28;;;19.55;;
65189;SDS011;51777;53.570;9.984;2024-01-11T03:12:50;43.95;;;18.85;;
65189;SDS011;51777;53.570;9.984;2024-01-11T03:15:15;39.92;;;17.92;;
65189;SDS011;51777;53.570;9.984;2024-01-11T03:17:41;42.10;;;19.15;;
65189;SDS011;51777;53.570;9.984;2024-01-11T03:20:07;41.13;;;17.48;;
65189;SDS011;51777;53.570;9.984;2024-01-11T03:22:33;39.88;;;17.65;;
65189;SDS011;51777;53.570;9.984;2024-01-11T03:24:58;41.92;;;19.27;;
65189;SDS011;51777;53.570;9.984;2024-01-11T03:27:24;44.28;;;19.92;;
65189;SDS011;51777;53.570;9.984;2024-01-11T03:29:49;38.95;;;17.60;;
65189;SDS011;51777;53.570;9.984;2024-01-11T03:32:15;36.50;;;18.10;;
65189;SDS011;51777;53.570;9.984;2024-01-11T03:34:41;41.42;;;18.83;;
65189;SDS011;51777;53.570;9.984;2024-01-11T03:37:06;35.08;;;14.50;;
65189;SDS011;51777;53.570;9.984;2024-01-11T03:39:32;42.55;;;19.27;;
65189;SDS011;51777;53.570;9.984;2024-01-11T03:41:58;38.80;;;17.65;;
65189;SDS011;51777;53.570;9.984;2024-01-11T03:44:24;41.67;;;17.45;;
65189;SDS011;51777;53.570;9.984;2024-01-11T03:46:49;41.95;;;19.40;;
65189;SDS011;51777;53.570;9.984;2024-01-11T03:49:15;43.00;;;19.30;;
65189;SDS011;51777;53.570;9.984;2024-01-11T03:51:40;40.22;;;18.63;;
65189;SDS011;51777;53.570;9.984;2024-01-11T03:54:05;44.80;;;20.75;;
65189;SDS011;51777;53.570;9.984;2024-01-11T03:56:31;46.10;;;19.25;;
65189;SDS011;51777;53.570;9.984;2024-01-11T03:58:56;43.33;;;19.25;;
65189;SDS011;51777;53.570;9.984;2024-01-11T04:01:22;43.05;;;19.50;;
65189;SDS011;51777;53.570;9.984;2024-01-11T04:03:48;47.38;;;20.42;;
65189;SDS011;51777;53.570;9.984;2024-01-11T04:06:23;42.50;;;19.27;;
65189;SDS011;51777;53.570;9.984;2024-01-11T04:08:49;42.78;;;19.20;;
65189;SDS011;51777;53.570;9.984;2024-01-11T04:11:16;40.65;;;18.48;;
65189;SDS011;51777;53.570;9.984;2024-01-11T04:13:42;44.42;;;19.52;;
65189;SDS011;51777;53.570;9.984;2024-01-11T04:16:07;42.08;;;20.02;;
65189;SDS011;51777;53.570;9.984;2024-01-11T04:18:33;43.70;;;20.40;;
65189;SDS011;51777;53.570;9.984;2024-01-11T04:20:58;45.65;;;19.27;;
65189;SDS011;51777;53.570;9.984;2024-01-11T04:23:24;47.03;;;20.25;;
65189;SDS011;51777;53.570;9.984;2024-01-11T04:25:49;52.63;;;21.67;;
65189;SDS011;51777;53.570;9.984;2024-01-11T04:28:18;59.55;;;24.52;;
65189;SDS011;51777;53.570;9.984;2024-01-11T04:30:44;60.55;;;24.52;;
65189;SDS011;51777;53.570;9.984;2024-01-11T04:33:09;66.65;;;24.95;;
65189;SDS011;51777;53.570;9.984;2024-01-11T04:35:35;66.28;;;25.92;;
65189;SDS011;51777;53.570;9.984;2024-01-11T04:38:01;60.15;;;26.02;;
65189;SDS011;51777;53.570;9.984;2024-01-11T04:40:26;62.10;;;26.63;;
65189;SDS011;51777;53.570;9.984;2024-01-11T04:42:52;65.72;;;27.27;;
65189;SDS011;51777;53.570;9.984;2024-01-11T04:45:17;64.72;;;27.20;;
65189;SDS011;51777;53.570;9.984;2024-01-11T04:47:43;68.57;;;27.63;;
65189;SDS011;51777;53.570;9.984;2024-01-11T04:50:08;65.18;;;25.77;;
65189;SDS011;51777;53.570;9.984;2024-01-11T04:52:34;58.95;;;23.65;;
65189;SDS011;51777;53.570;9.984;2024-01-11T04:55:00;72.75;;;29.30;;
65189;SDS011;51777;53.570;9.984;2024-01-11T04:57:26;71.20;;;28.23;;
65189;SDS011;51777;53.570;9.984;2024-01-11T04:59:52;72.03;;;28.65;;
65189;SDS011;51777;53.570;9.984;2024-01-11T05:02:20;73.70;;;29.35;;
65189;SDS011;51777;53.570;9.984;2024-01-11T05:04:45;57.03;;;21.48;;
65189;SDS011;51777;53.570;9.984;2024-01-11T05:07:11;75.00;;;28.58;;
65189;SDS011;51777;53.570;9.984;2024-01-11T05:09:36;68.38;;;27.42;;
65189;SDS011;51777;53.570;9.984;2024-01-11T05:12:02;71.53;;;28.25;;
65189;SDS011;51777;53.570;9.984;2024-01-11T05:14:27;68.53;;;28.42;;
65189;SDS011;51777;53.570;9.984;2024-01-11T05:16:53;68.88;;;27.02;;
65189;SDS011;51777;53.570;9.984;2024-01-11T05:19:18;66.13;;;27.02;;
65189;SDS011;51777;53.570;9.984;2024-01-11T05:21:44;65.15;;;26.05;;
65189;SDS011;51777;53.570;9.984;2024-01-11T05:24:10;55.67;;;23.63;;
65189;SDS011;51777;53.570;9.984;2024-01-11T05:26:35;58.13;;;25.30;;
65189;SDS011;51777;53.570;9.984;2024-01-11T05:29:01;57.88;;;24.58;;
65189;SDS011;51777;53.570;9.984;2024-01-11T05:31:29;56.50;;;23.20;;
65189;SDS011;51777;53.570;9.984;2024-01-11T05:33:54;51.15;;;23.15;;
65189;SDS011;51777;53.570;9.984;2024-01-11T05:36:20;49.92;;;21.83;;
65189;SDS011;51777;53.570;9.984;2024-01-11T05:41:14;51.35;;;22.17;;
65189;SDS011;51777;53.570;9.984;2024-01-11T05:43:40;37.63;;;18.00;;
65189;SDS011;51777;53.570;9.984;2024-01-11T05:46:06;42.63;;;18.83;;
65189;SDS011;51777;53.570;9.984;2024-01-11T05:48:32;39.78;;;18.30;;
65189;SDS011;51777;53.570;9.984;2024-01-11T05:50:57;41.53;;;18.15;;
65189;SDS011;51777;53.570;9.984;2024-01-11T05:53:23;36.60;;;17.40;;
65189;SDS011;51777;53.570;9.984;2024-01-11T05:55:49;39.40;;;18.55;;
65189;SDS011;51777;53.570;9.984;2024-01-11T05:58:15;40.42;;;16.95;;
65189;SDS011;51777;53.570;9.984;2024-01-11T06:00:40;35.90;;;16.45;;
65189;SDS011;51777;53.570;9.984;2024-01-11T06:03:07;37.40;;;17.77;;
65189;SDS011;51777;53.570;9.984;2024-01-11T06:05:32;29.70;;;13.80;;
65189;SDS011;51777;53.570;9.984;2024-01-11T06:07:58;34.47;;;16.20;;
65189;SDS011;51777;53.570;9.984;2024-01-11T06:10:24;43.45;;;17.13;;
65189;SDS011;51777;53.570;9.984;2024-01-11T06:13:08;34.75;;;15.65;;
65189;SDS011;51777;53.570;9.984;2024-01-11T06:15:34;35.03;;;15.95;;
65189;SDS011;51777;53.570;9.984;2024-01-11T06:17:59;29.58;;;13.73;;
65189;SDS011;51777;53.570;9.984;2024-01-11T06:20:25;32.50;;;14.13;;
65189;SDS011;51777;53.570;9.984;2024-01-11T06:22:51;31.08;;;14.38;;
65189;SDS011;51777;53.570;9.984;2024-01-11T06:25:16;30.25;;;14.10;;
65189;SDS011;51777;53.570;9.984;2024-01-11T06:27:43;24.95;;;10.90;;
65189;SDS011;51777;53.570;9.984;2024-01-11T06:30:11;29.05;;;12.45;;
65189;SDS011;51777;53.570;9.984;2024-01-11T06:32:37;27.63;;;12.77;;
65189;SDS011;51777;53.570;9.984;2024-01-11T06:35:02;27.45;;;12.35;;
65189;SDS011;51777;53.570;9.984;2024-01-11T06:37:28;27.80;;;11.73;;
65189;SDS011;51777;53.570;9.984;2024-01-11T06:39:54;26.35;;;11.32;;
65189;SDS011;51777;53.570;9.984;2024-01-11T06:42:19;25.25;;;11.02;;
65189;SDS011;51777;53.570;9.984;2024-01-11T06:44:46;27.92;;;11.48;;
65189;SDS011;51777;53.570;9.984;2024-01-11T06:47:12;30.92;;;11.68;;
65189;SDS011;51777;53.570;9.984;2024-01-11T06:49:38;24.92;;;10.65;;
65189;SDS011;51777;53.570;9.984;2024-01-11T06:52:05;30.52;;;10.65;;
65189;SDS011;51777;53.570;9.984;2024-01-11T06:54:31;30.92;;;11.52;;
65189;SDS011;51777;53.570;9.984;2024-01-11T06:56:57;28.98;;;11.27;;
65189;SDS011;51777;53.570;9.984;2024-01-11T06:59:23;29.48;;;11.35;;
65189;SDS011;51777;53.570;9.984;2024-01-11T07:01:48;34.13;;;11.40;;
65189;SDS011;51777;53.570;9.984;2024-01-11T07:04:14;45.03;;;11.75;;
65189;SDS011;51777;53.570;9.984;2024-01-11T07:06:40;47.42;;;11.88;;
65189;SDS011;51777;53.570;9.984;2024-01-11T07:09:05;30.95;;;11.27;;
65189;SDS011;51777;53.570;9.984;2024-01-11T07:11:31;39.25;;;13.02;;
65189;SDS011;51777;53.570;9.984;2024-01-11T07:13:57;32.78;;;11.93;;
65189;SDS011;51777;53.570;9.984;2024-01-11T07:16:23;34.63;;;11.55;;
65189;SDS011;51777;53.570;9.984;2024-01-11T07:18:48;43.28;;;13.05;;
65189;SDS011;51777;53.570;9.984;2024-01-11T07:21:21;43.85;;;12.27;;
65189;SDS011;51777;53.570;9.984;2024-01-11T07:23:55;35.22;;;12.55;;
65189;SDS011;51777;53.570;9.984;2024-01-11T07:26:22;36.13;;;12.10;;
65189;SDS011;51777;53.570;9.984;2024-01-11T07:28:48;47.35;;;12.20;;
65189;SDS011;51777;53.570;9.984;2024-01-11T07:31:14;35.55;;;11.48;;
65189;SDS011;51777;53.570;9.984;2024-01-11T07:33:39;40.95;;;11.30;;
65189;SDS011;51777;53.570;9.984;2024-01-11T07:36:05;39.45;;;11.90;;
65189;SDS011;51777;53.570;9.984;2024-01-11T07:38:31;33.85;;;11.38;;
65189;SDS011;51777;53.570;9.984;2024-01-11T07:40:57;32.85;;;10.38;;
65189;SDS011;51777;53.570;9.984;2024-01-11T07:43:23;30.42;;;10.65;;
65189;SDS011;51777;53.570;9.984;2024-01-11T07:45:49;40.60;;;10.52;;
65189;SDS011;51777;53.570;9.984;2024-01-11T07:48:15;32.47;;;10.15;;
65189;SDS011;51777;53.570;9.984;2024-01-11T07:50:41;38.65;;;10.68;;
65189;SDS011;51777;53.570;9.984;2024-01-11T07:53:06;36.95;;;9.75;;
65189;SDS011;51777;53.570;9.984;2024-01-11T07:55:32;39.30;;;10.07;;
65189;SDS011;51777;53.570;9.984;2024-01-11T07:57:57;33.70;;;10.43;;
65189;SDS011;51777;53.570;9.984;2024-01-11T08:00:22;32.88;;;10.15;;
65189;SDS011;51777;53.570;9.984;2024-01-11T08:02:48;30.80;;;9.82;;
65189;SDS011;51777;53.570;9.984;2024-01-11T08:05:14;26.48;;;9.05;;
65189;SDS011;51777;53.570;9.984;2024-01-11T08:07:40;33.97;;;11.35;;
65189;SDS011;51777;53.570;9.984;2024-01-11T08:10:07;36.47;;;14.20;;
65189;SDS011;51777;53.570;9.984;2024-01-11T08:12:34;26.55;;;9.35;;
65189;SDS011;51777;53.570;9.984;2024-01-11T08:14:59;25.27;;;9.38;;
65189;SDS011;51777;53.570;9.984;2024-01-11T08:17:25;29.73;;;10.00;;
65189;SDS011;51777;53.570;9.984;2024-01-11T08:19:51;28.00;;;9.48;;
65189;SDS011;51777;53.570;9.984;2024-01-11T08:24:49;27.85;;;9.15;;
65189;SDS011;51777;53.570;9.984;2024-01-11T08:27:15;23.42;;;7.80;;
65189;SDS011;51777;53.570;9.984;2024-01-11T08:29:42;26.00;;;7.90;;
65189;SDS011;51777;53.570;9.984;2024-01-11T08:32:08;23.85;;;9.02;;
65189;SDS011;51777;53.570;9.984;2024-01-11T08:34:34;28.05;;;8.30;;
65189;SDS011;51777;53.570;9.984;2024-01-11T08:36:59;21.27;;;7.82;;
65189;SDS011;51777;53.570;9.984;2024-01-11T08:39:25;29.05;;;8.98;;
65189;SDS011;51777;53.570;9.984;2024-01-11T08:41:50;26.67;;;8.82;;
65189;SDS011;51777;53.570;9.984;2024-01-11T08:44:17;25.52;;;9.60;;
65189;SDS011;51777;53.570;9.984;2024-01-11T08:46:43;29.85;;;9.82;;
65189;SDS011;51777;53.570;9.984;2024-01-11T08:49:09;25.30;;;9.43;;
65189;SDS011;51777;53.570;9.984;2024-01-11T08:51:34;23.92;;;8.68;;
65189;SDS011;51777;53.570;9.984;2024-01-11T08:54:00;28.88;;;8.93;;
65189;SDS011;51777;53.570;9.984;2024-01-11T08:56:28;21.02;;;8.25;;
65189;SDS011;51777;53.570;9.984;2024-01-11T08:58:54;29.70;;;9.13;;
65189;SDS011;51777;53.570;9.984;2024-01-11T09:01:20;30.52;;;9.55;;
65189;SDS011;51777;53.570;9.984;2024-01-11T09:03:47;28.50;;;9.65;;
65189;SDS011;51777;53.570;9.984;2024-01-11T09:06:26;23.02;;;9.18;;
65189;SDS011;51777;53.570;9.984;2024-01-11T09:08:51;27.02;;;10.02;;
65189;SDS011;51777;53.570;9.984;2024-01-11T09:11:17;34.30;;;10.00;;
65189;SDS011;51777;53.570;9.984;2024-01-11T09:13:43;22.60;;;7.70;;
65189;SDS011;51777;53.570;9.984;2024-01-11T09:16:08;25.73;;;7.90;;
65189;SDS011;51777;53.570;9.984;2024-01-11T09:18:34;26.98;;;8.88;;
65189;SDS011;51777;53.570;9.984;2024-01-11T09:21:00;15.85;;;5.93;;
65189;SDS011;51777;53.570;9.984;2024-01-11T09:23:26;26.48;;;8.52;;
65189;SDS011;51777;53.570;9.984;2024-01-11T09:25:51;16.10;;;5.97;;
65189;SDS011;51777;53.570;9.984;2024-01-11T09:28:16;18.35;;;7.68;;
65189;SDS011;51777;53.570;9.984;2024-01-11T09:30:48;24.73;;;8.27;;
65189;SDS011;51777;53.570;9.984;2024-01-11T09:33:20;20.67;;;7.22;;
65189;SDS011;51777;53.570;9.984;2024-01-11T09:35:46;27.33;;;7.63;;
65189;SDS011;51777;53.570;9.984;2024-01-11T09:38:15;25.05;;;8.07;;
65189;SDS011;51777;53.570;9.984;2024-01-11T09:40:40;17.50;;;7.00;;
65189;SDS011;51777;53.570;9.984;2024-01-11T09:43:07;18.45;;;6.80;;
65189;SDS011;51777;53.570;9.984;2024-01-11T09:45:40;23.65;;;7.78;;
65189;SDS011;51777;53.570;9.984;2024-01-11T09:48:11;26.63;;;10.88;;
65189;SDS011;51777;53.570;9.984;2024-01-11T09:50:39;16.90;;;6.78;;
65189;SDS011;51777;53.570;9.984;2024-01-11T09:53:07;20.40;;;7.15;;
65189;SDS011;51777;53.570;9.984;2024-01-11T09:55:33;21.83;;;8.27;;
65189;SDS011;51777;53.570;9.984;2024-01-11T09:58:04;24.95;;;8.80;;
65189;SDS011;51777;53.570;9.984;2024-01-11T10:00:34;25.83;;;9.45;;
65189;SDS011;51777;53.570;9.984;2024-01-11T10:05:30;26.38;;;9.18;;
65189;SDS011;51777;53.570;9.984;2024-01-11T10:07:58;22.15;;;8.52;;
65189;SDS011;51777;53.570;9.984;2024-01-11T10:10:23;20.92;;;8.52;;
65189;SDS011;51777;53.570;9.984;2024-01-11T10:12:48;22.75;;;7.43;;
65189;SDS011;51777;53.570;9.984;2024-01-11T10:15:16;23.10;;;8.93;;
65189;SDS011;51777;53.570;9.984;2024-01-11T10:17:42;28.63;;;10.18;;
65189;SDS011;51777;53.570;9.984;2024-01-11T10:20:12;25.15;;;10.15;;
65189;SDS011;51777;53.570;9.984;2024-01-11T10:22:39;22.63;;;7.80;;
65189;SDS011;51777;53.570;9.984;2024-01-11T10:25:12;25.98;;;10.85;;
65189;SDS011;51777;53.570;9.984;2024-01-11T10:27:43;28.48;;;10.90;;
65189;SDS011;51777;53.570;9.984;2024-01-11T10:30:10;27.30;;;9.85;;
65189;SDS011;51777;53.570;9.984;2024-01-11T10:32:46;30.27;;;12.90;;
65189;SDS011;51777;53.570;9.984;2024-01-11T10:35:16;33.30;;;12.13;;
65189;SDS011;51777;53.570;9.984;2024-01-11T10:37:45;30.15;;;12.00;;
65189;SDS011;51777;53.570;9.984;2024-01-11T10:40:15;11.45;;;5.20;;
65189;SDS011;51777;53.570;9.984;2024-01-11T10:42:43;33.47;;;13.60;;
65189;SDS011;51777;53.570;9.984;2024-01-11T10:45:14;39.80;;;13.93;;
65189;SDS011;51777;53.570;9.984;2024-01-11T10:50:13;35.42;;;14.35;;
65189;SDS011;51777;53.570;9.984;2024-01-11T10:52:51;40.17;;;14.57;;
65189;SDS011;51777;53.570;9.984;2024-01-11T10:55:26;41.00;;;15.10;;
65189;SDS011;51777;53.570;9.984;2024-01-11T10:57:52;41.17;;;16.55;;
65189;SDS011;51777;53.570;9.984;2024-01-11T11:00:24;38.47;;;15.00;;
65189;SDS011;51777;53.570;9.984;2024-01-11T11:02:53;37.90;;;15.40;;
65189;SDS011;51777;53.570;9.984;2024-01-11T11:05:25;42.92;;;16.08;;
65189;SDS011;51777;53.570;9.984;2024-01-11T11:07:52;38.65;;;15.95;;
65189;SDS011;51777;53.570;9.984;2024-01-11T11:10:21;45.90;;;16.10;;
65189;SDS011;51777;53.570;9.984;2024-01-11T11:12:48;40.42;;;16.23;;
65189;SDS011;51777;53.570;9.984;2024-01-11T11:15:16;41.10;;;16.35;;
65189;SDS011;51777;53.570;9.984;2024-01-11T11:17:42;43.63;;;16.95;;
65189;SDS011;51777;53.570;9.984;2024-01-11T11:20:12;45.67;;;17.05;;
65189;SDS011;51777;53.570;9.984;2024-01-11T11:23:06;37.30;;;14.98;;
65189;SDS011;51777;53.570;9.984;2024-01-11T11:25:33;38.33;;;14.23;;
65189;SDS011;51777;53.570;9.984;2024-01-11T11:28:00;31.27;;;12.73;;
65189;SDS011;51777;53.570;9.984;2024-01-11T11:30:29;35.67;;;14.93;;
65189;SDS011;51777;53.570;9.984;2024-01-11T11:33:08;33.97;;;14.82;;
65189;SDS011;51777;53.570;9.984;2024-01-11T11:35:34;36.15;;;14.18;;
65189;SDS011;51777;53.570;9.984;2024-01-11T11:38:00;49.55;;;16.35;;
65189;SDS011;51777;53.570;9.984;2024-01-11T11:40:33;40.97;;;16.38;;
65189;SDS011;51777;53.570;9.984;2024-01-11T11:43:04;43.28;;;16.67;;
65189;SDS011;51777;53.570;9.984;2024-01-11T11:45:30;44.05;;;17.45;;
65189;SDS011;51777;53.570;9.984;2024-01-11T11:47:56;45.60;;;16.35;;
65189;SDS011;51777;53.570;9.984;2024-01-11T11:50:22;42.20;;;16.70;;
65189;SDS011;51777;53.570;9.984;2024-01-11T11:52:55;39.25;;;15.68;;
65189;SDS011;51777;53.570;9.984;2024-01-11T11:55:22;44.17;;;15.80;;
65189;SDS011;51777;53.570;9.984;2024-01-11T11:57:50;36.70;;;15.90;;
65189;SDS011;51777;53.570;9.984;2024-01-11T12:00:17;41.30;;;16.08;;
65189;SDS011;51777;53.570;9.984;2024-01-11T12:02:42;39.25;;;15.85;;
65189;SDS011;51777;53.570;9.984;2024-01-11T12:05:09;40.38;;;15.35;;
65189;SDS011;51777;53.570;9.984;2024-01-11T12:07:34;38.75;;;15.18;;
65189;SDS011;51777;53.570;9.984;2024-01-11T12:10:00;34.40;;;13.57;;
65189;SDS011;51777;53.570;9.984;2024-01-11T12:12:28;37.45;;;16.13;;
65189;SDS011;51777;53.570;9.984;2024-01-11T12:14:54;39.28;;;15.60;;
65189;SDS011;51777;53.570;9.984;2024-01-11T12:17:19;36.65;;;14.88;;
65189;SDS011;51777;53.570;9.984;2024-01-11T12:19:45;37.13;;;14.45;;
65189;SDS011;51777;53.570;9.984;2024-01-11T12:22:10;35.83;;;14.63;;
65189;SDS011;51777;53.570;9.984;2024-01-11T12:24:36;37.28;;;14.52;;
65189;SDS011;51777;53.570;9.984;2024-01-11T12:27:02;40.15;;;14.93;;
65189;SDS011;51777;53.570;9.984;2024-01-11T12:29:28;35.70;;;13.95;;
65189;SDS011;51777;53.570;9.984;2024-01-11T12:31:56;37.15;;;14.20;;
65189;SDS011;51777;53.570;9.984;2024-01-11T12:34:23;39.28;;;14.13;;
65189;SDS011;51777;53.570;9.984;2024-01-11T12:36:50;41.60;;;15.90;;
65189;SDS011;51777;53.570;9.984;2024-01-11T12:39:16;33.67;;;14.20;;
65189;SDS011;51777;53.570;9.984;2024-01-11T12:41:42;39.75;;;15.30;;
65189;SDS011;51777;53.570;9.984;2024-01-11T12:44:12;44.65;;;15.73;;
65189;SDS011;51777;53.570;9.984;2024-01-11T12:46:41;36.58;;;14.48;;
65189;SDS011;51777;53.570;9.984;2024-01-11T12:49:19;44.45;;;15.85;;
65189;SDS011;51777;53.570;9.984;2024-01-11T12:51:49;34.03;;;14.93;;
65189;SDS011;51777;53.570;9.984;2024-01-11T12:54:14;40.22;;;16.42;;
65189;SDS011;51777;53.570;9.984;2024-01-11T13:00:08;35.17;;;13.68;;
65189;SDS011;51777;53.570;9.984;2024-01-11T13:02:38;33.83;;;14.05;;
65189;SDS011;51777;53.570;9.984;2024-01-11T13:05:05;41.03;;;17.27;;
65189;SDS011;51777;53.570;9.984;2024-01-11T13:07:32;34.28;;;14.98;;
65189;SDS011;51777;53.570;9.984;2024-01-11T13:10:01;34.13;;;13.82;;
65189;SDS011;51777;53.570;9.984;2024-01-11T13:12:29;35.67;;;14.85;;
65189;SDS011;51777;53.570;9.984;2024-01-11T13:14:57;31.98;;;13.60;;
65189;SDS011;51777;53.570;9.984;2024-01-11T13:17:26;31.67;;;13.68;;
65189;SDS011;51777;53.570;9.984;2024-01-11T13:19:52;38.80;;;13.75;;
65189;SDS011;51777;53.570;9.984;2024-01-11T13:22:27;35.78;;;13.57;;
65189;SDS011;51777;53.570;9.984;2024-01-11T13:24:54;35.08;;;13.07;;
65189;SDS011;51777;53.570;9.984;2024-01-11T13:27:20;29.08;;;12.60;;
65189;SDS011;51777;53.570;9.984;2024-01-11T13:29:48;34.22;;;13.32;;
65189;SDS011;51777;53.570;9.984;2024-01-11T13:32:13;30.08;;;13.10;;
65189;SDS011;51777;53.570;9.984;2024-01-11T13:34:39;34.10;;;13.93;;
65189;SDS011;51777;53.570;9.984;2024-01-11T13:37:04;32.70;;;13.68;;
65189;SDS011;51777;53.570;9.984;2024-01-11T13:39:30;35.55;;;14.13;;
65189;SDS011;51777;53.570;9.984;2024-01-11T13:41:56;33.40;;;12.90;;
65189;SDS011;51777;53.570;9.984;2024-01-11T13:44:25;30.90;;;12.50;;
65189;SDS011;51777;53.570;9.984;2024-01-11T13:46:50;28.95;;;12.90;;
65189;SDS011;51777;53.570;9.984;2024-01-11T13:49:16;32.10;;;12.73;;
65189;SDS011;51777;53.570;9.984;2024-01-11T13:51:42;29.25;;;12.45;;
65189;SDS011;51777;53.570;9.984;2024-01-11T13:54:09;29.30;;;12.50;;
65189;SDS011;51777;53.570;9.984;2024-01-11T13:56:35;34.25;;;12.68;;
65189;SDS011;51777;53.570;9.984;2024-01-11T13:59:00;32.45;;;11.98;;
65189;SDS011;51777;53.570;9.984;2024-01-11T14:01:26;32.88;;;12.43;;
65189;SDS011;51777;53.570;9.984;2024-01-11T14:03:51;31.77;;;13.65;;
65189;SDS011;51777;53.570;9.984;2024-01-11T14:06:17;32.85;;;14.45;;
65189;SDS011;51777;53.570;9.984;2024-01-11T14:08:42;32.60;;;12.75;;
65189;SDS011;51777;53.570;9.984;2024-01-11T14:11:07;28.85;;;11.38;;
65189;SDS011;51777;53.570;9.984;2024-01-11T14:13:33;31.95;;;12.02;;
65189;SDS011;51777;53.570;9.984;2024-01-11T14:15:58;32.97;;;11.80;;
65189;SDS011;51777;53.570;9.984;2024-01-11T14:18:25;33.35;;;13.38;;
65189;SDS011;51777;53.570;9.984;2024-01-11T14:20:51;28.08;;;11.45;;
65189;SDS011;51777;53.570;9.984;2024-01-11T14:23:16;26.80;;;11.25;;
65189;SDS011;51777;53.570;9.984;2024-01-11T14:25:42;33.65;;;13.10;;
65189;SDS011;51777;53.570;9.984;2024-01-11T14:28:07;40.53;;;12.43;;
65189;SDS011;51777;53.570;9.984;2024-01-11T14:30:33;36.70;;;12.32;;
65189;SDS011;51777;53.570;9.984;2024-01-11T14:32:59;31.38;;;13.05;;